Santa Fe Century Gran and Medio Fondo 2016

# of participants: 193# of finishers: 168last updated: 5/22/2016 8:53 am
Result Questions?
Award Cat Rank Finish Time MPH Bib First Name Last Name Category Gender Age Age Group City State
51 5:15:45.0 19.0 mph 5148 Gretchen Selby Gran Fondo F 42 40-49 Los Alamos NM
52 5:16:03.6 18.98 mph 5016 Bill Horton Gran Fondo M 59 50-59 Dallas TX
53 5:16:56.0 18.93 mph 5082 john genell Gran Fondo M 55 50-59 Littleton CO
54 5:17:15.0 18.91 mph 5005 Davis Miller Gran Fondo M 30 30-39 Denver CO
55 5:19:29.8 18.78 mph 5070 Sharon Madison Gran Fondo F 55 50-59 Denver CO
56 5:19:33.3 18.78 mph 5032 Christopher Masimer Gran Fondo M 33 30-39 Montrose CO
57 5:19:52.1 18.76 mph 5056 Kent Yount Gran Fondo M 54 50-59 LITTLETON CO
58 5:20:11.3 18.74 mph 5087 Lindsey DeNeen Gran Fondo F 40 40-49 Boulder CO
59 5:20:28.5 18.72 mph 5104 David Gehlert Gran Fondo M 52 50-59 Denver CO
60 5:22:19.8 18.61 mph 5012 David Bowman Gran Fondo M 58 50-59 Highlands Ranch CO
61 5:23:53.9 18.52 mph 5090 Arthur Wiselogel Gran Fondo M 60 60-69 Lakewood CO
62 5:24:23.5 18.5 mph 5137 Darrel Kruger Gran Fondo M 65 60-69 Cottonwood AZ
63 5:24:44.6 18.48 mph 5057 Thomas Silewicz Gran Fondo M 60 60-69 Rohnert Park CA
64 5:24:58.8 18.46 mph 5007 Kevin Kilgore Gran Fondo M 62 60-69 Lakewood CO
65 5:25:09.3 18.45 mph 5026 Bill Velasquez Gran Fondo M 51 50-59 Albuquerque NM
66 5:25:54.4 18.41 mph 5116 Noah Bankhurst Gran Fondo M 33 30-39 Albuquerque NM
67 5:25:56.2 18.41 mph 5103 Andrew Templeton Gran Fondo M 23 19-29 Albuquerque NM
68 5:29:56.0 18.19 mph 5088 Jim Ostic Gran Fondo M 61 60-69 Los Alamos NM
69 5:31:03.0 18.12 mph 5008 Ron McOmber Gran Fondo M 60 60-69 Littleton CO
70 5:31:46.5 18.08 mph 5019 Tyne Sansom Gran Fondo M 42 40-49 Portales NM
71 5:31:55.9 18.08 mph 5118 Bruce Dewald Gran Fondo M 60 60-69 Los Alamos NM
72 5:32:53.0 18.02 mph 5091 Benjamin Flowers Gran Fondo M 45 40-49 Denver CO
73 5:32:56.6 18.02 mph 5105 Don Boatwright Gran Fondo M 67 60-69 Monument CO
74 5:34:11.8 17.95 mph 5061 Steve Cawley Gran Fondo M 47 40-49 Kelowna BC
75 5:34:49.6 17.92 mph 5022 Darryl Deighton Gran Fondo M 41 40-49 Colorado Springs CO
76 5:34:49.6 17.92 mph 5028 Dennis Bruens Gran Fondo M 47 40-49 Canon City CO
77 5:39:57.2 17.65 mph 5046 Robert Hurley Gran Fondo M 62 60-69 Pueblo CO
78 5:40:49.0 17.6 mph 5048 Steve Wetmore Gran Fondo M 63 60-69 Tucson AZ
79 5:47:29.0 17.27 mph 5072 Tom Barrett Gran Fondo M 59 50-59 Montrose CO
80 5:49:10.3 17.18 mph 5017 David Booty Gran Fondo M 51 50-59 Dallas TX
81 5:51:54.0 17.05 mph 5030 Dan Kochanek Gran Fondo M 48 40-49 Denver CO
82 5:59:36.6 16.68 mph 5014 Chad Miller Gran Fondo M 47 40-49 Lakewood CO
83 5:59:54.6 16.67 mph 5129 Dean Laird Gran Fondo M 44 40-49 Colorado Springs CO
84 6:01:21.5 16.6 mph 5126 Chris Russell Gran Fondo M 43 40-49 Albuquerque NM
85 6:01:37.6 16.59 mph 5107 Tristan Chavez Gran Fondo M 31 30-39 Albuquerque NM
86 6:05:38.3 16.41 mph 5029 Dayvid Graybill Gran Fondo M 61 60-69 Denver CO
87 6:07:05.6 16.34 mph 5059 Ernesto Padilla Gran Fondo M 52 50-59 El Paso TX
88 6:07:43.5 16.32 mph 5092 Ryan Helinski Gran Fondo M 31 30-39 Albuquerque NM
89 6:10:57.3 16.17 mph 5049 Aaron Orosco Gran Fondo M 35 30-39 Rio Rancho NM
90 6:11:43.1 16.14 mph 5043 Carla Larson Gran Fondo F 64 60-69 Indian Hills CO
91 6:12:45.3 16.1 mph 5033 Edward BUSTAMANTE Gran Fondo M 58 50-59 Albuquerque NM
92 6:13:27.1 16.07 mph 5076 Timothy Franklin Gran Fondo M 45 40-49 Denver CO
93 6:15:36.3 15.97 mph 5109 Brent Davis Gran Fondo M 43 40-49 Lincoln NE
94 6:15:57.5 15.96 mph 5053 Frank Weissbarth Gran Fondo M 69 60-69 Santa Fe NM
95 6:16:12.6 15.95 mph 5001 Kent Thompson Gran Fondo M 59 50-59 Lincoln NE
96 6:16:13.2 15.95 mph 5002 Darren Robinson Gran Fondo M 44 40-49 Evergreen CO
97 6:21:17.3 15.74 mph 5063 James Falk Gran Fondo M 61 60-69 Dallas TX
98 6:36:54.1 15.12 mph 5011 Heather Leja Gran Fondo F 54 50-59 Boulder CO
99 6:41:55.1 14.93 mph 5078 Diane Hendrix Gran Fondo F 52 50-59 overgaard AZ
100 6:42:31.7 14.91 mph 5062 Gabriele Bates Gran Fondo F 70 70-98 Heber AZ
101 6:48:13.8 14.7 mph 5124 Joseph Reich Gran Fondo M 35 30-39 Santa fe NM
102 6:53:53.7 14.5 mph 5021 Lori Borg Gran Fondo F 45 40-49 San Diego CA
103 6:53:53.9 14.5 mph 5013 Eileen Hyslop Gran Fondo F 48 40-49 La Jolla CA
104 7:02:50.0 14.19 mph 5035 Lewis Coker Gran Fondo M 58 50-59 Bossier City LA
105 7:03:00.4 14.18 mph 5083 Kevin McMaster Gran Fondo M 56 50-59 Shreveport LA
106 7:03:04.2 14.18 mph 5065 Sandra Germany Gran Fondo F 49 40-49 Shreveport LA
107 7:03:04.9 14.18 mph 5079 Melissa Avery Gran Fondo F 34 30-39 Shreveport LA
108 7:03:08.1 14.18 mph 5045 Rob Moskowitz Gran Fondo M 33 30-39 Lincoln Park NJ
109 7:04:38.7 14.13 mph 5134 John Avery Gran Fondo M 56 50-59 Shreveport LA
110 7:11:14.2 13.91 mph 5099 Frank Cherne Gran Fondo M 50 50-59 Los Alamos NM
111 7:11:34.3 13.9 mph 5125 Neelia Miller Gran Fondo F 36 30-39 Aurora CO
112 7:12:05.6 13.89 mph 5015 Ginna Getto Gran Fondo F 56 50-59 dallas TX
113 7:12:06.1 13.89 mph 5018 Laura Booty Gran Fondo F 51 50-59 Dallas TX
114 7:43:08.8 12.95 mph 5110 Arnold Atkins Gran Fondo M 73 70-98 Santa Fe NM
115 7:48:03.6 12.82 mph 5128 Michael Steel Gran Fondo M 60 60-69 Shiprock NM
116 7:49:24.9 12.78 mph 5144 John Frey Gran Fondo M 56 50-59 Albuquerque NM
117 7:49:45.1 12.77 mph 5066 Bruce Theriault Gran Fondo M 67 60-69 Longmont CO
118 8:23:18.7 11.92 mph 5010 Chris Van Patten Gran Fondo F 43 40-49 Loveland CO
4029 William Oates Medio Fondo M 30 30-39 Arroyo seco NM
4048 Sergio Vargas Sr Medio Fondo M 50 50-59 El Paso TX
4053 Antonio Simental Medio Fondo M 56 50-59 Albuquerque NM
5003 Jim Blue Gran Fondo M 54 50-59 Lincoln NE
5009 R Rhatigan Gran Fondo M 51 50-59 Highlands Ranch CO
5020 Hollis Brake Gran Fondo M 35 30-39 montrose CO
5024 Robert Tyndall Gran Fondo M 61 60-69 Edmond OK
5025 Daniel Caputo Gran Fondo M 35 30-39 Wheat Ridge CO
5034 Tommy Robinson Gran Fondo M 47 40-49 albuquerque NM
5036 ANDREW HAHN Gran Fondo M 43 40-49 ALBUQUERQUE NM
5037 Johan Erasmus Gran Fondo M 49 40-49 Boulder CO
5039 Bryan Weiss Gran Fondo M 47 40-49 lakewood CO
5068 Mark Thompson Gran Fondo M 55 50-59 Pueblo of Acoma NM
5073 AC Aquino Gran Fondo M 46 40-49 Lubbock TX
5074 Christi Stafford Gran Fondo F 40 40-49 Lakewood CO
5075 Adam Perry Gran Fondo M 35 30-39 Boulder CO
5077 Danny Fulton Gran Fondo M 47 40-49 Aurora CO
5080 Melissa Avery Gran Fondo F 34 30-39 Shreveport LA
5094 Rob Mahoney Gran Fondo M 66 60-69 Wilson WY
5127 Marcos Luevano Gran Fondo M 41 40-49 New Mexico NM
5133 Unknown Rider Gran Fondo M 99 Fake town NJ
5135 Andrew Duettra Gran Fondo M 50 50-59 Santa Fe NM
5149 Karina Graham Gran Fondo F 47 40-49 Rio Rancho NM
5150 Bill Dahl Gran Fondo M 56 50-59 Corrales NM
5152 Evan Fahy Gran Fondo M 26 19-29 Albuquerque NM